createdAt,value
2023-02-14T00:01:10.418Z,63.08
2023-02-14T00:03:37.698Z,63.15
2023-02-14T00:06:09.971Z,65.18
2023-02-14T00:08:37.443Z,61.90
2023-02-14T00:11:05.605Z,62.30
2023-02-14T00:13:32.782Z,64.25
2023-02-14T00:16:00.023Z,62.28
2023-02-14T00:18:45.715Z,62.13
2023-02-14T00:21:12.889Z,62.78
2023-02-14T00:23:40.444Z,62.08
2023-02-14T00:26:14.061Z,70.82
2023-02-14T00:28:42.789Z,59.95
2023-02-14T00:31:10.216Z,62.80
2023-02-14T00:33:37.674Z,65.78
2023-02-14T00:36:08.100Z,58.15
2023-02-14T00:38:35.470Z,61.00
2023-02-14T00:41:02.811Z,61.30
2023-02-14T00:43:29.951Z,56.03
2023-02-14T00:45:57.805Z,65.63
2023-02-14T00:48:25.613Z,59.90
2023-02-14T00:50:52.767Z,56.05
2023-02-14T00:53:19.848Z,57.05
2023-02-14T00:55:47.198Z,61.33
2023-02-14T00:58:15.300Z,59.42
2023-02-14T01:00:42.508Z,61.15
2023-02-14T01:03:09.681Z,67.72
2023-02-14T01:05:37.033Z,66.10
2023-02-14T01:08:04.762Z,64.43
2023-02-14T01:10:32.060Z,57.17
2023-02-14T01:12:59.549Z,58.70
2023-02-14T01:15:28.433Z,65.53
2023-02-14T01:17:55.573Z,70.00
2023-02-14T01:20:22.675Z,65.38
2023-02-14T01:22:49.755Z,69.03
2023-02-14T01:25:17.168Z,52.35
2023-02-14T01:27:44.325Z,61.40
2023-02-14T01:30:14.331Z,68.28
2023-02-14T01:32:42.501Z,66.65
2023-02-14T01:35:10.542Z,66.55
2023-02-14T01:37:37.761Z,69.63
2023-02-14T01:40:08.451Z,67.25
2023-02-14T01:42:37.449Z,60.70
2023-02-14T01:45:22.342Z,66.68
2023-02-14T01:47:53.528Z,56.08
2023-02-14T01:50:35.828Z,64.60
2023-02-14T01:53:11.604Z,65.10
2023-02-14T01:55:45.309Z,62.28
2023-02-14T01:58:23.903Z,56.08
2023-02-14T02:01:00.332Z,58.13
2023-02-14T02:03:51.000Z,66.13
2023-02-14T02:06:23.622Z,60.40
2023-02-14T02:09:25.720Z,63.88
2023-02-14T02:11:53.585Z,58.20
2023-02-14T02:14:23.088Z,59.95
2023-02-14T02:16:53.217Z,63.15
2023-02-14T02:19:45.726Z,63.95
2023-02-14T02:22:24.758Z,67.07
2023-02-14T02:25:14.029Z,70.47
2023-02-14T02:27:50.225Z,73.03
2023-02-14T02:30:20.146Z,63.25
2023-02-14T02:33:07.011Z,73.28
2023-02-14T02:35:54.398Z,83.97
2023-02-14T02:38:47.722Z,77.75
2023-02-14T02:41:32.978Z,77.50
2023-02-14T02:44:09.221Z,75.15
2023-02-14T02:46:48.553Z,78.93
2023-02-14T02:50:16.329Z,77.68
2023-02-14T02:53:06.549Z,75.25
2023-02-14T02:56:12.812Z,84.30
2023-02-14T02:58:40.841Z,71.40
2023-02-14T03:01:12.615Z,58.20
2023-02-14T03:04:10.974Z,62.55
2023-02-14T03:06:38.003Z,75.90
2023-02-14T03:09:36.148Z,78.40
2023-02-14T03:12:24.763Z,63.17
2023-02-14T03:15:23.176Z,68.57
2023-02-14T03:17:56.112Z,59.70
2023-02-14T03:20:34.283Z,62.75
2023-02-14T03:23:11.016Z,68.68
2023-02-14T03:25:51.261Z,64.60
2023-02-14T03:28:23.802Z,67.30
2023-02-14T03:31:06.327Z,66.57
2023-02-14T03:33:58.281Z,61.10
2023-02-14T03:36:50.736Z,52.85
2023-02-14T03:39:51.830Z,65.78
2023-02-14T03:42:31.125Z,55.53
2023-02-14T03:45:00.674Z,60.28
2023-02-14T03:47:31.966Z,61.35
2023-02-14T03:50:26.096Z,66.53
2023-02-14T03:52:55.746Z,60.90
2023-02-14T03:55:49.343Z,53.20
2023-02-14T03:58:32.759Z,55.63
2023-02-14T04:01:22.270Z,62.40
2023-02-14T04:03:50.489Z,54.05
2023-02-14T04:06:20.029Z,55.00
2023-02-14T04:08:47.146Z,60.67
2023-02-14T04:11:14.622Z,67.82
2023-02-14T04:13:44.530Z,62.50
2023-02-14T04:16:11.787Z,64.38
2023-02-14T04:18:57.299Z,65.82
2023-02-14T04:21:24.710Z,56.63
2023-02-14T04:23:51.839Z,51.15
2023-02-14T04:26:18.871Z,56.40
2023-02-14T04:28:46.056Z,69.43
2023-02-14T04:31:13.201Z,58.95
2023-02-14T04:33:40.433Z,58.85
2023-02-14T04:36:07.672Z,64.93
2023-02-14T04:38:34.762Z,67.60
2023-02-14T04:41:02.235Z,62.95
2023-02-14T04:43:29.712Z,70.68
2023-02-14T04:45:56.882Z,68.38
2023-02-14T04:48:23.973Z,61.10
2023-02-14T04:50:55.144Z,67.30
2023-02-14T04:53:22.761Z,77.13
2023-02-14T04:55:50.306Z,72.72
2023-02-14T04:58:17.891Z,65.80
2023-02-14T05:00:45.144Z,76.25
2023-02-14T05:03:12.268Z,76.78
2023-02-14T05:05:39.462Z,72.40
2023-02-14T05:08:06.613Z,71.80
2023-02-14T05:10:33.771Z,70.18
2023-02-14T05:13:01.518Z,76.30
2023-02-14T05:15:28.646Z,84.10
2023-02-14T05:17:55.684Z,81.80
2023-02-14T05:20:22.831Z,93.75
2023-02-14T05:22:49.861Z,95.93
2023-02-14T05:25:16.993Z,100.03
2023-02-14T05:27:43.993Z,140.07
2023-02-14T05:30:12.228Z,153.23
2023-02-14T05:32:39.370Z,131.38
2023-02-14T05:35:06.736Z,124.45
2023-02-14T05:37:33.827Z,135.23
2023-02-14T05:40:00.879Z,146.85
2023-02-14T05:42:28.002Z,120.93
2023-02-14T05:44:55.154Z,128.50
2023-02-14T05:47:22.237Z,123.10
2023-02-14T05:49:49.332Z,132.85
2023-02-14T05:52:16.439Z,128.95
2023-02-14T05:54:43.510Z,112.45
2023-02-14T05:57:10.610Z,111.32
2023-02-14T05:59:37.626Z,108.40
2023-02-14T06:02:04.755Z,102.90
2023-02-14T06:04:31.842Z,105.65
2023-02-14T06:06:59.061Z,95.38
2023-02-14T06:09:26.136Z,88.00
2023-02-14T06:11:55.195Z,84.35
2023-02-14T06:14:22.560Z,84.68
2023-02-14T06:16:49.872Z,77.63
2023-02-14T06:19:16.957Z,81.35
2023-02-14T06:21:44.100Z,86.20
2023-02-14T06:24:11.134Z,84.10
2023-02-14T06:26:38.266Z,81.57
2023-02-14T06:29:05.481Z,83.40
2023-02-14T06:31:32.670Z,82.57
2023-02-14T06:33:59.988Z,72.95
2023-02-14T06:36:27.414Z,67.50
2023-02-14T06:38:54.513Z,70.72
2023-02-14T06:41:21.565Z,65.50
2023-02-14T06:43:51.430Z,59.42
2023-02-14T06:46:19.150Z,59.63
2023-02-14T06:48:46.661Z,64.55
2023-02-14T06:51:13.943Z,76.25
2023-02-14T06:53:41.259Z,63.08
2023-02-14T06:56:08.405Z,71.50
2023-02-14T06:58:35.761Z,74.72
2023-02-14T07:01:03.171Z,71.15
2023-02-14T07:03:30.462Z,76.00
2023-02-14T07:05:58.581Z,71.93
2023-02-14T07:08:26.370Z,82.68
2023-02-14T07:10:59.732Z,79.25
2023-02-14T07:13:27.223Z,82.07
2023-02-14T07:15:54.490Z,80.07
2023-02-14T07:18:21.601Z,85.63
2023-02-14T07:20:50.311Z,81.82
2023-02-14T07:23:17.607Z,81.18
2023-02-14T07:25:44.671Z,82.57
2023-02-14T07:28:11.717Z,81.10
2023-02-14T07:30:38.854Z,72.28
2023-02-14T07:33:06.162Z,58.47
2023-02-14T07:35:35.231Z,59.67
2023-02-14T07:38:02.328Z,57.50
2023-02-14T07:40:30.108Z,53.10
2023-02-14T07:42:58.325Z,48.67
2023-02-14T07:45:26.244Z,57.33
2023-02-14T07:47:55.249Z,56.35
2023-02-14T07:50:23.474Z,56.17
2023-02-14T07:52:50.954Z,61.83
2023-02-14T07:55:19.415Z,58.00
2023-02-14T07:57:48.987Z,56.97
2023-02-14T08:00:16.463Z,62.78
2023-02-14T08:02:43.942Z,62.42
2023-02-14T08:05:11.301Z,66.93
2023-02-14T08:07:38.424Z,70.40
2023-02-14T08:10:06.219Z,68.50
2023-02-14T08:12:52.103Z,71.30
2023-02-14T08:15:37.671Z,58.88
2023-02-14T08:18:04.857Z,71.05
2023-02-14T08:20:32.153Z,57.75
2023-02-14T08:22:59.312Z,60.15
2023-02-14T08:25:26.448Z,58.45
2023-02-14T08:27:55.280Z,91.43
2023-02-14T08:30:23.388Z,69.43
2023-02-14T08:32:50.615Z,86.70
2023-02-14T08:35:19.308Z,103.57
2023-02-14T08:37:46.475Z,74.80
2023-02-14T08:40:13.670Z,62.22
2023-02-14T08:42:40.969Z,58.15
2023-02-14T08:45:08.617Z,50.42
2023-02-14T08:47:36.064Z,58.20
2023-02-14T08:50:04.513Z,58.53
2023-02-14T08:52:31.632Z,65.55
2023-02-14T08:54:58.730Z,59.55
2023-02-14T08:57:27.909Z,56.58
2023-02-14T08:59:54.971Z,51.35
2023-02-14T09:02:21.980Z,53.15
2023-02-14T09:04:49.117Z,51.80
2023-02-14T09:07:16.216Z,48.17
2023-02-14T09:09:43.277Z,53.10
2023-02-14T09:12:10.982Z,45.90
2023-02-14T09:14:40.003Z,41.10
2023-02-14T09:17:07.820Z,37.83
2023-02-14T09:19:36.181Z,42.80
2023-02-14T09:22:04.325Z,39.33
2023-02-14T09:24:33.768Z,33.88
2023-02-14T09:27:01.007Z,32.95
2023-02-14T09:29:28.785Z,34.47
2023-02-14T09:32:01.442Z,28.17
2023-02-14T09:34:30.140Z,32.35
2023-02-14T09:37:15.798Z,31.90
2023-02-14T09:39:42.843Z,31.88
2023-02-14T09:42:12.721Z,33.50
2023-02-14T09:44:53.902Z,30.38
2023-02-14T09:47:49.168Z,29.85
2023-02-14T09:50:34.614Z,35.47
2023-02-14T09:53:08.224Z,29.27
2023-02-14T09:55:47.490Z,26.80
2023-02-14T09:58:23.535Z,37.42
2023-02-14T10:01:00.872Z,30.55
2023-02-14T10:03:46.864Z,27.70
2023-02-14T10:06:43.883Z,31.80
2023-02-14T10:09:37.467Z,28.70
2023-02-14T10:12:09.105Z,28.30
2023-02-14T10:14:41.107Z,26.48
2023-02-14T10:17:14.307Z,23.83
2023-02-14T10:20:02.955Z,30.55
2023-02-14T10:22:41.784Z,31.50
2023-02-14T10:25:22.590Z,29.33
2023-02-14T10:27:50.158Z,25.50
2023-02-14T10:30:21.425Z,28.38
2023-02-14T10:32:50.422Z,30.00
2023-02-14T10:36:02.331Z,32.15
2023-02-14T10:38:51.017Z,26.85
2023-02-14T10:41:48.587Z,23.63
2023-02-14T10:44:46.281Z,28.52
2023-02-14T10:47:28.363Z,27.58
2023-02-14T10:50:37.345Z,29.73
2023-02-14T10:53:42.043Z,25.50
2023-02-14T10:56:20.235Z,27.55
2023-02-14T10:58:49.760Z,28.77
2023-02-14T11:01:18.683Z,26.25
2023-02-14T11:04:04.250Z,30.45
2023-02-14T11:06:31.727Z,27.85
2023-02-14T11:08:59.279Z,25.42
2023-02-14T11:11:49.549Z,25.35
2023-02-14T11:14:25.982Z,29.80
2023-02-14T11:16:54.717Z,29.70
2023-02-14T11:19:28.077Z,27.50
2023-02-14T11:21:58.506Z,25.10
2023-02-14T11:24:31.646Z,25.67
2023-02-14T11:27:08.242Z,25.40
2023-02-14T11:29:53.186Z,25.75
2023-02-14T11:32:24.686Z,34.05
2023-02-14T11:34:58.105Z,26.50
2023-02-14T11:37:28.651Z,23.55
2023-02-14T11:39:58.716Z,20.75
2023-02-14T11:42:46.588Z,27.60
2023-02-14T11:45:31.793Z,23.60
2023-02-14T11:48:41.976Z,21.60
2023-02-14T11:51:14.627Z,22.60
2023-02-14T11:53:53.578Z,22.42
2023-02-14T11:56:22.210Z,26.10
2023-02-14T11:58:56.660Z,23.52
2023-02-14T12:01:35.758Z,22.30
2023-02-14T12:04:14.310Z,22.17
2023-02-14T12:06:41.525Z,23.75
2023-02-14T12:09:26.421Z,27.00
2023-02-14T12:12:05.085Z,25.50
2023-02-14T12:14:35.472Z,23.95
2023-02-14T12:17:17.501Z,22.83
2023-02-14T12:19:47.542Z,21.25
2023-02-14T12:22:19.350Z,21.85
2023-02-14T12:25:05.216Z,22.02
2023-02-14T12:27:57.022Z,23.50
2023-02-14T12:30:26.412Z,25.58
2023-02-14T12:32:58.769Z,20.83
2023-02-14T12:35:31.984Z,19.85
2023-02-14T12:38:12.052Z,22.48
2023-02-14T12:40:57.369Z,21.70
2023-02-14T12:43:43.555Z,20.85
2023-02-14T12:49:14.105Z,23.10
2023-02-14T12:51:59.902Z,17.02
2023-02-14T12:54:42.388Z,21.38
2023-02-14T12:57:41.228Z,20.95
2023-02-14T13:00:32.150Z,21.00
2023-02-14T13:03:11.193Z,16.45
2023-02-14T13:06:04.693Z,37.25
2023-02-14T13:09:04.040Z,19.58
2023-02-14T13:11:58.851Z,21.80
2023-02-14T13:14:48.204Z,18.75
2023-02-14T13:17:35.616Z,20.30
2023-02-14T13:20:08.812Z,19.42
2023-02-14T13:22:36.699Z,19.50
2023-02-14T13:25:13.346Z,18.30
2023-02-14T13:27:41.657Z,21.63
2023-02-14T13:30:25.226Z,17.17
2023-02-14T13:32:55.593Z,17.88
2023-02-14T13:35:24.192Z,20.55
2023-02-14T13:37:58.906Z,18.67
2023-02-14T13:40:28.191Z,20.90
2023-02-14T13:42:57.891Z,29.70
2023-02-14T13:45:37.777Z,23.48
2023-02-14T13:48:06.632Z,20.50
2023-02-14T13:50:38.541Z,32.25
2023-02-14T13:53:06.198Z,18.43
2023-02-14T13:55:37.196Z,18.75
2023-02-14T13:58:21.854Z,19.77
2023-02-14T14:00:51.336Z,17.55
2023-02-14T14:03:28.936Z,18.48
2023-02-14T14:06:11.471Z,17.90
2023-02-14T14:08:48.090Z,15.55
2023-02-14T14:11:21.236Z,14.70
2023-02-14T14:14:30.176Z,14.90
2023-02-14T14:17:00.907Z,15.88
2023-02-14T14:19:28.222Z,17.20
2023-02-14T14:22:10.343Z,18.38
2023-02-14T14:24:50.893Z,20.07
2023-02-14T14:27:29.278Z,20.15
2023-02-14T14:29:56.417Z,20.23
2023-02-14T14:32:35.767Z,17.88
2023-02-14T14:35:18.026Z,16.77
2023-02-14T14:37:51.192Z,18.43
2023-02-14T14:40:20.324Z,20.85
2023-02-14T14:42:48.947Z,19.23
2023-02-14T14:45:25.598Z,18.45
2023-02-14T14:47:55.216Z,17.98
2023-02-14T14:50:28.541Z,18.77
2023-02-14T14:53:05.569Z,18.63
2023-02-14T14:55:44.555Z,19.13
2023-02-14T14:58:36.557Z,21.02
2023-02-14T15:01:05.407Z,21.33
2023-02-14T15:03:33.053Z,27.05
2023-02-14T15:06:21.990Z,21.00
2023-02-14T15:08:50.080Z,25.10
2023-02-14T15:12:04.093Z,19.60
2023-02-14T15:14:36.140Z,27.08
2023-02-14T15:17:14.460Z,24.93
2023-02-14T15:19:50.989Z,20.23
2023-02-14T15:22:24.731Z,20.02
2023-02-14T15:24:52.095Z,21.92
2023-02-14T15:27:23.415Z,27.40
2023-02-14T15:30:06.772Z,28.08
2023-02-14T15:32:36.370Z,42.33
2023-02-14T15:35:06.859Z,26.02
2023-02-14T15:37:34.782Z,20.50
2023-02-14T15:40:02.691Z,39.67
2023-02-14T15:42:33.075Z,50.55
2023-02-14T15:45:28.303Z,33.25
2023-02-14T15:48:04.628Z,42.42
2023-02-14T15:50:36.664Z,39.95
2023-02-14T15:53:21.118Z,34.93
2023-02-14T15:55:50.035Z,20.75
2023-02-14T15:58:28.378Z,26.63
2023-02-14T16:00:56.342Z,36.80
2023-02-14T16:03:26.894Z,27.40
2023-02-14T16:05:55.059Z,26.05
2023-02-14T16:08:35.448Z,24.55
2023-02-14T16:11:14.575Z,23.95
2023-02-14T16:13:51.497Z,25.58
2023-02-14T16:16:20.383Z,20.48
2023-02-14T16:18:48.889Z,26.05
2023-02-14T16:21:35.015Z,28.13
2023-02-14T16:24:10.854Z,33.78
2023-02-14T16:26:43.329Z,34.70
2023-02-14T16:29:16.642Z,73.07
2023-02-14T16:32:14.531Z,161.55
2023-02-14T16:34:43.370Z,112.85
2023-02-14T16:37:29.242Z,116.90
2023-02-14T16:39:58.701Z,100.35
2023-02-14T16:42:26.326Z,79.18
2023-02-14T16:44:55.650Z,59.97
2023-02-14T16:47:23.296Z,52.50
2023-02-14T16:49:53.475Z,53.90
2023-02-14T16:52:25.785Z,56.75
2023-02-14T16:54:53.998Z,41.72
2023-02-14T16:57:33.822Z,42.70
2023-02-14T17:00:01.693Z,43.45
2023-02-14T17:02:29.369Z,39.08
2023-02-14T17:04:57.251Z,49.63
2023-02-14T17:07:24.688Z,45.58
2023-02-14T17:09:57.789Z,52.13
2023-02-14T17:12:30.387Z,59.30
2023-02-14T17:15:02.332Z,89.43
2023-02-14T17:17:30.491Z,82.13
2023-02-14T17:19:58.868Z,57.30
2023-02-14T17:22:26.641Z,82.22
2023-02-14T17:24:56.694Z,76.63
2023-02-14T17:27:24.604Z,75.50
2023-02-14T17:29:52.311Z,77.35
2023-02-14T17:32:20.142Z,89.45
2023-02-14T17:34:48.528Z,85.28
2023-02-14T17:37:16.586Z,72.78
2023-02-14T17:39:46.088Z,69.82
2023-02-14T17:42:13.580Z,69.18
2023-02-14T17:44:41.425Z,69.40
2023-02-14T17:47:09.201Z,59.95
2023-02-14T17:49:36.898Z,72.40
2023-02-14T17:52:04.950Z,61.45
2023-02-14T17:54:38.847Z,61.45
2023-02-14T17:57:06.497Z,68.00
2023-02-14T17:59:34.900Z,60.47
2023-02-14T18:02:02.917Z,60.13
2023-02-14T18:04:32.409Z,67.60
2023-02-14T18:07:00.760Z,82.53
2023-02-14T18:09:29.061Z,84.40
2023-02-14T18:11:57.295Z,76.28
2023-02-14T18:14:25.393Z,90.45
2023-02-14T18:16:53.197Z,87.25
2023-02-14T18:19:21.352Z,89.85
2023-02-14T18:21:50.484Z,89.43
2023-02-14T18:24:18.807Z,119.63
2023-02-14T18:26:47.166Z,106.75
2023-02-14T18:29:15.621Z,99.43
2023-02-14T18:31:44.820Z,111.28
2023-02-14T18:34:13.538Z,113.78
2023-02-14T18:36:43.305Z,117.97
2023-02-14T18:39:11.436Z,128.13
2023-02-14T18:41:39.967Z,125.72
2023-02-14T18:44:08.513Z,130.60
2023-02-14T18:46:37.560Z,137.77
2023-02-14T18:49:09.229Z,122.43
2023-02-14T18:51:40.026Z,123.13
2023-02-14T18:54:08.687Z,104.57
2023-02-14T18:56:38.542Z,100.85
2023-02-14T18:59:11.445Z,104.32
2023-02-14T19:01:42.700Z,111.55
2023-02-14T19:06:43.088Z,104.30
2023-02-14T19:09:15.402Z,108.95
2023-02-14T19:11:44.773Z,111.70
2023-02-14T19:14:14.026Z,116.00
2023-02-14T19:16:51.268Z,125.20
2023-02-14T19:19:22.713Z,140.25
2023-02-14T19:21:52.027Z,130.88
2023-02-14T19:24:20.953Z,118.18
2023-02-14T19:26:49.382Z,123.97
2023-02-14T19:29:19.847Z,119.43
2023-02-14T19:31:55.609Z,123.25
2023-02-14T19:34:31.602Z,124.68
2023-02-14T19:37:03.681Z,124.65
2023-02-14T19:39:34.099Z,130.57
2023-02-14T19:42:08.850Z,155.82
2023-02-14T19:44:38.695Z,128.52
2023-02-14T19:47:19.401Z,160.63
2023-02-14T19:49:53.653Z,199.55
2023-02-14T19:52:26.881Z,184.85
2023-02-14T19:54:57.862Z,199.73
2023-02-14T19:57:26.509Z,190.95
2023-02-14T19:59:54.948Z,182.82
2023-02-14T20:02:24.106Z,153.55
2023-02-14T20:04:54.110Z,169.52
2023-02-14T20:07:23.103Z,159.82
2023-02-14T20:09:51.635Z,170.70
2023-02-14T20:12:20.280Z,176.18
2023-02-14T20:14:52.045Z,183.90
2023-02-14T20:17:22.219Z,196.23
2023-02-14T20:19:50.796Z,187.52
2023-02-14T20:22:21.450Z,186.68
2023-02-14T20:24:49.992Z,194.13
2023-02-14T20:27:19.308Z,173.55
2023-02-14T20:29:50.269Z,176.32
2023-02-14T20:32:19.898Z,166.05
2023-02-14T20:34:49.495Z,146.57
2023-02-14T20:37:18.535Z,159.68
2023-02-14T20:39:47.392Z,139.55
2023-02-14T20:42:18.981Z,145.30
2023-02-14T20:45:08.360Z,146.93
2023-02-14T20:47:37.261Z,133.18
2023-02-14T20:50:06.425Z,122.68
2023-02-14T20:52:37.602Z,135.57
2023-02-14T20:55:09.583Z,144.57
2023-02-14T20:57:41.312Z,143.85
2023-02-14T21:00:11.257Z,123.45
2023-02-14T21:02:39.890Z,135.75
2023-02-14T21:05:09.976Z,128.82
2023-02-14T21:07:42.091Z,135.95
2023-02-14T21:10:10.512Z,125.43
2023-02-14T21:12:39.283Z,136.23
2023-02-14T21:15:09.864Z,148.70
2023-02-14T21:17:39.623Z,131.20
2023-02-14T21:20:11.200Z,119.05
2023-02-14T21:22:39.766Z,125.40
2023-02-14T21:25:08.698Z,125.82
2023-02-14T21:27:37.330Z,131.73
2023-02-14T21:30:06.183Z,135.88
2023-02-14T21:32:34.259Z,139.93
2023-02-14T21:35:03.881Z,122.78
2023-02-14T21:37:33.371Z,131.15
2023-02-14T21:40:01.589Z,134.98
2023-02-14T21:42:29.919Z,175.85
2023-02-14T21:45:16.598Z,129.52
2023-02-14T21:48:04.800Z,127.45
2023-02-14T21:50:33.284Z,128.05
2023-02-14T21:53:21.423Z,142.10
2023-02-14T21:55:49.606Z,118.90
2023-02-14T21:58:17.651Z,129.40
2023-02-14T22:00:47.021Z,133.05
2023-02-14T22:03:14.443Z,149.13
2023-02-14T22:05:41.892Z,135.40
2023-02-14T22:08:09.503Z,134.75
2023-02-14T22:10:39.841Z,145.82
2023-02-14T22:13:07.429Z,160.52
2023-02-14T22:15:34.542Z,131.93
2023-02-14T22:18:01.999Z,144.90
2023-02-14T22:20:29.092Z,150.95
2023-02-14T22:22:56.254Z,155.32
2023-02-14T22:25:25.358Z,158.32
2023-02-14T22:27:52.412Z,148.15
2023-02-14T22:30:19.612Z,141.48
2023-02-14T22:32:46.739Z,159.10
2023-02-14T22:35:13.829Z,147.25
2023-02-14T22:37:40.913Z,147.23
2023-02-14T22:40:08.543Z,135.55
2023-02-14T22:42:35.563Z,144.63
2023-02-14T22:45:03.432Z,134.13
2023-02-14T22:47:32.047Z,134.35
2023-02-14T22:50:01.084Z,139.50
2023-02-14T22:52:28.422Z,139.98
2023-02-14T22:54:55.424Z,130.32
2023-02-14T22:57:22.473Z,131.85
2023-02-14T22:59:49.526Z,130.63
2023-02-14T23:02:16.598Z,133.55
2023-02-14T23:04:43.722Z,147.50
2023-02-14T23:07:11.892Z,149.45
2023-02-14T23:09:39.012Z,134.60
2023-02-14T23:12:26.212Z,137.68
2023-02-14T23:15:11.892Z,138.85
2023-02-14T23:18:08.027Z,141.23
2023-02-14T23:20:53.905Z,140.80
2023-02-14T23:23:21.053Z,151.75
2023-02-14T23:25:48.111Z,133.00
2023-02-14T23:28:15.320Z,130.48
2023-02-14T23:30:42.355Z,119.20
2023-02-14T23:33:09.480Z,132.50
2023-02-14T23:35:37.691Z,173.60
2023-02-14T23:38:04.710Z,140.20
2023-02-14T23:40:51.785Z,168.02
2023-02-14T23:43:18.908Z,157.65
2023-02-14T23:45:45.956Z,144.43
2023-02-14T23:48:13.086Z,139.68
2023-02-14T23:50:40.175Z,154.88
2023-02-14T23:53:07.450Z,138.73
2023-02-14T23:55:34.583Z,139.60
2023-02-14T23:58:01.665Z,140.02
